Armada, Michigan
Current Conditions -  °F | °C
As of 3:55 PM on Wednesday 17 Dec 2014 (Local Time) from KMTC Reporting Station
Overcast Overcast  
Wind Chill: 19°   Ceiling: 2800
Heat Index: 31°   Visibility: 12mi
Dew Point: 21°   Wind: 18mph
Humidity: 67%   Direction: 270°W
Pressure: 30.03"   Gusts: 25mph
Location:  42.84°N, 82.88°W
Report Text: KMTC 172055Z 27016G22KT 12SM OVC028 M01/M06 A3003 RMK PK WND 28026/14 SLP184 T10061060 53003
Loading
Personal Weather Stations






























Interactive Weather Map New forecast layout! Learn more

10-Day Weather Forecast

Advertisements
Track Severe Weather on mobile